Time;durP1;ratioP1;P1;durP2;ratioP2;P2;SDS_P1;SDS_P2;PMS_P1;PMS_P2;Temp;Humidity;BMP_temperature;BMP_pressure;BME280_temperature;BME280_humidity;BME280_pressure;Samples;Min_cycle;Max_cycle;Signal;HPM_P1;HPM_P2
2023/04/02 00:00:21;;;;;;;4.17;1.80;;;;;;;12.91;70.46;99735.84;4761347;30;20279;-71
2023/04/02 03:56:41;;;;;;;;;;;;;;;;;;;;;
2023/04/02 16:01:14;;;;;;;5.40;3.40;;;;;;;10.39;62.30;101064.06;4915947;29;20224;-73
2023/04/02 16:04:14;;;;;;;6.07;3.90;;;;;;;10.49;60.88;101064.94;4919128;29;20231;-70
2023/04/02 16:07:01;;;;;;;8.77;3.73;;;;;;;10.63;60.36;101077.03;4920795;29;20211;-73
2023/04/02 16:09:34;;;;;;;7.70;4.40;;;;;;;10.73;60.18;101077.91;4918724;29;20204;-70
2023/04/02 16:12:14;;;;;;;7.10;4.00;;;;;;;10.86;59.86;101081.97;4918120;29;20227;-74
2023/04/02 16:14:44;;;;;;;5.87;4.07;;;;;;;10.92;59.12;101086.75;4919346;29;20306;-73
2023/04/02 16:17:20;;;;;;;9.23;4.10;;;;;;;11.00;58.22;101087.88;4922561;29;20213;-72
2023/04/02 16:19:56;;;;;;;5.87;4.27;;;;;;;10.97;58.03;101090.81;4920273;29;20259;-71
2023/04/02 16:22:26;;;;;;;7.03;4.20;;;;;;;10.96;58.05;101092.63;4916669;29;20291;-72
2023/04/02 16:25:02;;;;;;;5.10;3.30;;;;;;;10.90;57.77;101101.97;4918172;29;20228;-73
2023/04/02 17:45:29;;;;;;;7.57;3.83;;;;;;;9.62;56.75;101259.50;4813707;29;20259;-67
2023/04/02 18:23:07;;;;;;;8.27;3.57;;;;;;;9.17;55.65;101333.63;2928112;23;20278;-64
2023/04/02 18:25:53;;;;;;;5.07;2.93;;;;;;;9.21;56.06;101343.03;4934823;28;21069;-64
2023/04/02 18:28:48;;;;;;;4.00;2.70;;;;;;;9.27;55.65;101354.94;4935205;28;20215;-64
2023/04/02 18:31:24;;;;;;;4.37;2.70;;;;;;;9.35;55.65;101352.53;4935870;28;20249;-64
2023/04/02 18:34:24;;;;;;;5.57;2.80;;;;;;;9.39;55.01;101360.13;4933431;28;20445;-63
2023/04/02 18:37:05;;;;;;;4.53;2.63;;;;;;;9.40;54.92;101367.13;4933097;28;20216;-64
2023/04/02 18:39:45;;;;;;;6.53;2.63;;;;;;;9.33;54.01;101365.88;4935033;28;20219;-65
2023/04/02 18:42:23;;;;;;;5.50;3.03;;;;;;;9.30;54.57;101382.03;4933721;28;20257;-65
2023/04/02 18:45:02;;;;;;;7.50;2.73;;;;;;;9.31;54.69;101386.34;4934336;28;20346;-65
2023/04/02 18:47:44;;;;;;;4.80;2.83;;;;;;;9.31;54.82;101390.81;4933987;28;20226;-65
2023/04/02 18:50:16;;;;;;;5.27;2.67;;;;;;;9.26;54.34;101391.16;4935512;28;20212;-66
2023/04/02 18:52:45;;;;;;;4.57;2.50;;;;;;;9.21;54.52;101400.41;4934534;28;20273;-64
2023/04/02 18:55:20;;;;;;;6.07;3.33;;;;;;;9.28;54.57;101405.13;4934909;28;20223;-66
2023/04/02 18:57:51;;;;;;;6.60;3.37;;;;;;;9.32;54.46;101403.91;4935993;28;20233;-64
2023/04/02 19:00:27;;;;;;;4.43;2.70;;;;;;;9.25;54.12;101426.50;4932990;28;20240;-64
2023/04/02 19:03:01;;;;;;;5.27;3.13;;;;;;;9.27;54.27;101416.66;4934616;28;20206;-64
2023/04/02 19:05:39;;;;;;;7.50;2.90;;;;;;;9.25;54.03;101425.66;4934648;28;20242;-66
2023/04/02 19:08:17;;;;;;;5.17;3.20;;;;;;;9.20;54.32;101431.31;4935395;28;20252;-66
2023/04/02 19:10:52;;;;;;;4.17;2.57;;;;;;;9.21;54.33;101445.41;4936074;28;20237;-65
2023/04/02 19:13:21;;;;;;;4.20;2.33;;;;;;;9.11;53.99;101439.94;4935318;28;20230;-66
2023/04/02 19:16:12;;;;;;;7.10;2.73;;;;;;;9.19;53.97;101448.16;4936927;28;20765;-65
2023/04/02 19:18:52;;;;;;;4.73;2.90;;;;;;;9.22;54.19;101445.28;4931264;29;20271;-65
2023/04/02 19:21:31;;;;;;;5.90;2.70;;;;;;;9.22;54.25;101447.94;4934499;28;20329;-64
2023/04/02 19:24:24;;;;;;;4.80;2.67;;;;;;;9.14;53.32;101455.59;4901112;29;20247;-63
2023/04/02 19:27:03;;;;;;;4.50;2.37;;;;;;;9.18;53.85;101461.50;4896346;29;20747;-65
2023/04/02 19:29:42;;;;;;;7.03;2.77;;;;;;;9.22;53.83;101461.16;4895668;29;20208;-64
2023/04/02 19:32:17;;;;;;;6.50;2.93;;;;;;;9.24;53.48;101469.81;4895332;29;20239;-65
2023/04/02 19:34:57;;;;;;;6.03;3.00;;;;;;;9.25;53.78;101468.84;4897655;29;20220;-64
2023/04/02 19:37:35;;;;;;;3.87;2.30;;;;;;;9.26;53.08;101478.50;4895825;29;20306;-64
2023/04/02 19:40:13;;;;;;;4.10;2.60;;;;;;;9.32;53.35;101478.03;4897666;29;20290;-66
2023/04/02 19:42:48;;;;;;;5.43;2.40;;;;;;;9.36;53.57;101487.44;4898933;29;20219;-68
2023/04/02 19:45:31;;;;;;;4.13;2.50;;;;;;;9.33;53.03;101487.66;4895910;29;20225;-69
2023/04/02 19:48:09;;;;;;;6.50;2.40;;;;;;;9.30;52.56;101500.28;4896654;29;20220;-67
2023/04/02 19:50:37;;;;;;;7.93;3.03;;;;;;;9.24;52.65;101492.78;4898549;29;20216;-65
2023/04/02 19:53:05;;;;;;;6.60;2.23;;;;;;;9.28;58.69;101494.25;4895935;29;20299;-61
2023/04/02 19:55:33;;;;;;;5.43;2.70;;;;;;;9.47;56.09;101488.44;4896239;29;20228;-61
2023/04/02 19:58:02;;;;;;;7.70;2.83;;;;;;;9.61;53.67;101494.34;4897282;29;20713;-63
2023/04/02 20:00:45;;;;;;;5.17;2.53;;;;;;;9.64;52.65;101501.22;4896595;29;20790;-61
2023/04/02 20:03:13;;;;;;;5.17;3.07;;;;;;;9.54;52.17;101501.09;4894297;29;20220;-63
2023/04/02 20:05:41;;;;;;;4.57;2.50;;;;;;;9.47;52.30;101517.56;4896143;29;20218;-67
2023/04/02 20:08:09;;;;;;;6.90;2.83;;;;;;;9.42;52.78;101517.88;4896401;29;20213;-66
2023/04/02 20:10:37;;;;;;;4.47;2.27;;;;;;;9.25;51.78;101521.78;4897477;29;20676;-66
2023/04/02 20:13:07;;;;;;;5.57;2.97;;;;;;;9.16;52.85;101527.75;4901200;29;20294;-65
2023/04/02 20:15:34;;;;;;;3.50;2.10;;;;;;;9.16;53.02;101527.75;4900574;29;20806;-65
2023/04/02 20:18:03;;;;;;;6.33;2.00;;;;;;;9.25;53.18;101537.66;4903012;29;20315;-64
2023/04/02 20:20:31;;;;;;;5.87;2.50;;;;;;;9.22;53.08;101535.28;4901181;29;20314;-65
2023/04/02 20:22:59;;;;;;;5.23;2.50;;;;;;;9.17;52.96;101534.75;4910170;29;22414;-65
2023/04/02 20:25:27;;;;;;;4.00;2.30;;;;;;;9.17;52.84;101540.03;4917291;29;20212;-65
2023/04/02 20:27:55;;;;;;;4.80;2.63;;;;;;;9.14;52.75;101542.09;4917676;29;20690;-64
2023/04/02 20:30:31;;;;;;;5.07;2.93;;;;;;;9.17;52.84;101544.50;4920619;29;20211;-65
2023/04/02 20:32:59;;;;;;;3.60;2.10;;;;;;;9.16;52.78;101542.81;4920411;29;20629;-65
2023/04/02 20:35:28;;;;;;;3.90;2.17;;;;;;;9.10;52.53;101554.69;4918205;29;20787;-64
2023/04/02 20:37:56;;;;;;;3.37;2.03;;;;;;;9.14;52.61;101553.53;4917312;29;21960;-64
2023/04/02 20:40:25;;;;;;;6.20;2.00;;;;;;;9.14;52.76;101558.81;4917501;29;20224;-66
2023/04/02 20:42:52;;;;;;;4.13;2.00;;;;;;;9.15;52.72;101560.47;4919697;29;20234;-64
2023/04/02 20:45:20;;;;;;;5.70;2.47;;;;;;;9.12;52.21;101560.72;4919415;29;20217;-64
2023/04/02 20:47:50;;;;;;;5.87;2.20;;;;;;;9.01;52.06;101568.59;4916927;29;20244;-65
2023/04/02 20:50:17;;;;;;;3.67;2.07;;;;;;;8.92;52.28;101566.59;4918437;29;20257;-66
2023/04/02 20:52:45;;;;;;;3.77;2.07;;;;;;;8.88;52.66;101575.75;4919090;29;22121;-65
2023/04/02 20:55:13;;;;;;;4.03;2.37;;;;;;;8.84;52.30;101576.91;4917829;29;20971;-64
2023/04/02 20:57:41;;;;;;;3.57;2.00;;;;;;;8.78;52.26;101580.00;4919060;29;20210;-65
2023/04/02 21:00:11;;;;;;;7.53;2.40;;;;;;;8.87;52.51;101580.19;4915848;29;20219;-65
2023/04/02 21:02:38;;;;;;;5.17;2.43;;;;;;;8.91;52.04;101586.06;4914952;29;20231;-64
2023/04/02 21:05:08;;;;;;;6.93;2.60;;;;;;;8.87;52.06;101582.81;4917710;29;20241;-65
2023/04/02 21:07:35;;;;;;;3.67;1.97;;;;;;;8.87;52.19;101593.41;4918908;29;20218;-64
2023/04/02 21:10:03;;;;;;;3.83;2.27;;;;;;;8.97;52.23;101596.25;4920049;29;20215;-64
2023/04/02 21:12:31;;;;;;;7.53;2.07;;;;;;;8.91;52.26;101599.31;4915458;29;20215;-65
2023/04/02 21:14:59;;;;;;;7.20;2.17;;;;;;;8.95;52.38;101598.16;4919219;29;20317;-65
2023/04/02 21:17:29;;;;;;;3.73;2.10;;;;;;;8.97;52.34;101597.06;4920913;29;20223;-64
2023/04/02 21:19:57;;;;;;;3.53;2.07;;;;;;;8.93;52.01;101605.34;4917270;29;20222;-65
2023/04/02 21:22:26;;;;;;;3.47;1.67;;;;;;;8.99;52.56;101607.53;4914340;29;20283;-65
2023/04/02 21:24:54;;;;;;;5.30;2.30;;;;;;;8.98;52.15;101616.41;4920257;29;20211;-65
2023/04/02 21:27:24;;;;;;;3.90;2.30;;;;;;;8.94;52.40;101607.88;4917126;29;20207;-64
2023/04/02 21:29:52;;;;;;;5.20;1.90;;;;;;;8.96;52.50;101607.78;4915015;29;21139;-65
2023/04/02 21:32:20;;;;;;;4.90;2.30;;;;;;;8.86;52.27;101610.22;4917146;29;20222;-64
2023/04/02 21:34:49;;;;;;;3.67;2.10;;;;;;;8.77;53.00;101610.88;4917982;29;20318;-65
2023/04/02 21:37:16;;;;;;;4.33;2.13;;;;;;;8.78;53.14;101606.44;4919572;29;20242;-65
2023/04/02 21:39:45;;;;;;;3.63;2.03;;;;;;;8.75;53.34;101611.94;4917158;29;20287;-66
2023/04/02 21:42:14;;;;;;;4.57;2.37;;;;;;;8.70;53.32;101611.44;4916136;29;20842;-65
2023/04/02 21:44:41;;;;;;;4.63;2.50;;;;;;;8.70;53.37;101614.91;4916281;29;20234;-65
2023/04/02 21:47:09;;;;;;;3.47;2.23;;;;;;;8.73;53.62;101606.75;4915844;29;21717;-65
2023/04/02 21:49:37;;;;;;;5.10;2.20;;;;;;;8.81;53.46;101606.19;4918175;29;20230;-66
2023/04/02 21:52:05;;;;;;;3.83;2.20;;;;;;;8.77;53.28;101604.75;4914189;29;20223;-64
2023/04/02 21:54:32;;;;;;;5.23;2.13;;;;;;;8.83;53.34;101610.44;4918173;29;20232;-65
2023/04/02 21:57:01;;;;;;;5.43;2.00;;;;;;;8.88;53.03;101612.78;4918246;29;20671;-65
2023/04/02 21:59:29;;;;;;;5.43;2.10;;;;;;;8.88;52.85;101607.47;4919205;29;20250;-64
2023/04/02 22:01:57;;;;;;;7.77;2.47;;;;;;;8.76;53.05;101613.63;4918361;29;20228;-65
2023/04/02 22:04:27;;;;;;;4.17;2.40;;;;;;;8.83;52.86;101609.59;4918213;29;20209;-64
2023/04/02 22:06:55;;;;;;;5.70;2.07;;;;;;;8.83;52.69;101615.72;4920725;29;20211;-64
2023/04/02 22:09:25;;;;;;;4.50;2.13;;;;;;;8.79;52.80;101608.13;4917400;29;20230;-66
2023/04/02 22:11:54;;;;;;;4.53;2.40;;;;;;;8.83;53.21;101618.38;4919970;29;20234;-64
2023/04/02 22:14:24;;;;;;;6.83;2.70;;;;;;;8.86;52.87;101618.16;4919227;29;20236;-64
2023/04/02 22:16:52;;;;;;;3.70;2.10;;;;;;;8.83;52.50;101620.16;4919071;29;20218;-64
2023/04/02 22:19:20;;;;;;;5.43;2.63;;;;;;;8.85;52.38;101619.13;4920095;29;20302;-64
2023/04/02 22:21:47;;;;;;;5.13;2.57;;;;;;;8.94;52.85;101625.56;4917510;29;21662;-64
2023/04/02 22:24:18;;;;;;;5.27;2.27;;;;;;;9.00;53.03;101618.00;4917674;29;20715;-64
2023/04/02 22:26:46;;;;;;;4.27;2.30;;;;;;;9.03;52.53;101628.38;4917388;29;20202;-65
2023/04/02 22:29:15;;;;;;;5.97;2.50;;;;;;;9.01;52.46;101625.00;4917562;29;20213;-64
2023/04/02 22:31:44;;;;;;;3.60;2.30;;;;;;;9.04;51.80;101623.94;4916668;29;20334;-63
2023/04/02 22:34:12;;;;;;;4.83;2.37;;;;;;;8.93;51.79;101632.63;4919734;29;20231;-65
2023/04/02 22:36:40;;;;;;;4.93;2.20;;;;;;;8.95;51.26;101632.53;4915769;29;20766;-66
2023/04/02 22:39:10;;;;;;;4.37;2.30;;;;;;;8.93;51.17;101632.63;4916634;29;20218;-66
2023/04/02 22:41:38;;;;;;;5.30;2.07;;;;;;;9.02;51.11;101631.97;4914344;29;20568;-65
2023/04/02 22:44:06;;;;;;;5.37;2.40;;;;;;;9.04;51.25;101634.53;4914512;29;20218;-65
2023/04/02 22:46:34;;;;;;;6.93;2.43;;;;;;;9.08;51.29;101630.69;4916087;29;20237;-65
2023/04/02 22:49:03;;;;;;;6.80;2.27;;;;;;;9.07;51.17;101634.28;4914298;29;20318;-64
2023/04/02 22:51:31;;;;;;;5.00;2.40;;;;;;;8.98;50.86;101635.78;4915497;29;20226;-64
2023/04/02 22:53:59;;;;;;;3.63;2.57;;;;;;;8.98;50.80;101633.16;4914363;29;20239;-65
2023/04/02 22:56:30;;;;;;;4.87;2.40;;;;;;;9.00;50.18;101641.81;4914930;29;20220;-65
2023/04/02 22:58:59;;;;;;;4.10;2.30;;;;;;;9.02;49.58;101634.63;4914783;29;20219;-65
2023/04/02 23:01:28;;;;;;;4.63;2.17;;;;;;;9.06;50.06;101643.16;4914474;29;20220;-66
2023/04/02 23:03:56;;;;;;;4.23;2.20;;;;;;;9.10;50.09;101639.38;4915391;29;21185;-66
2023/04/02 23:06:26;;;;;;;4.40;2.00;;;;;;;9.04;49.73;101643.31;4917305;29;20652;-65
2023/04/02 23:08:54;;;;;;;5.97;2.30;;;;;;;8.98;49.57;101645.53;4917719;29;20671;-66
2023/04/02 23:11:23;;;;;;;4.53;2.47;;;;;;;9.02;49.97;101644.38;4913925;29;21712;-67
2023/04/02 23:13:53;;;;;;;4.10;2.10;;;;;;;9.00;49.60;101652.41;4915471;29;20680;-65
2023/04/02 23:16:21;;;;;;;4.00;2.30;;;;;;;8.97;49.72;101639.38;4915145;29;21354;-65
2023/04/02 23:18:50;;;;;;;3.30;2.03;;;;;;;8.94;49.68;101633.50;4915463;29;20684;-66
2023/04/02 23:21:19;;;;;;;5.83;2.20;;;;;;;8.91;49.53;101644.28;4913868;29;20219;-64
2023/04/02 23:23:50;;;;;;;5.90;2.53;;;;;;;8.84;49.61;101635.09;4915333;29;20279;-65
2023/04/02 23:26:19;;;;;;;3.80;2.10;;;;;;;8.83;49.97;101630.75;4913047;29;20260;-67
2023/04/02 23:28:48;;;;;;;4.53;2.03;;;;;;;8.72;49.48;101628.84;4916508;29;20783;-65
2023/04/02 23:31:19;;;;;;;4.07;2.20;;;;;;;8.66;49.69;101635.44;4913773;29;20326;-65
2023/04/02 23:33:47;;;;;;;5.27;1.90;;;;;;;8.67;49.85;101621.25;4912400;29;20666;-68
2023/04/02 23:36:20;;;;;;;3.57;2.10;;;;;;;8.60;49.87;101622.66;4914467;29;20220;-67
2023/04/02 23:38:53;;;;;;;4.03;2.03;;;;;;;8.58;49.55;101626.34;4915701;29;20219;-64
2023/04/02 23:41:22;;;;;;;5.00;2.10;;;;;;;8.53;50.01;101629.28;4916105;29;20219;-66
2023/04/02 23:43:50;;;;;;;6.10;2.03;;;;;;;8.48;50.48;101634.06;4915415;29;20328;-65
2023/04/02 23:46:18;;;;;;;4.80;2.10;;;;;;;8.40;50.94;101631.13;4914073;29;20581;-64
2023/04/02 23:48:46;;;;;;;4.27;2.13;;;;;;;8.42;50.90;101628.38;4915907;29;20246;-65
2023/04/02 23:51:14;;;;;;;4.47;2.10;;;;;;;8.45;50.94;101625.50;4914118;29;20732;-65
2023/04/02 23:53:43;;;;;;;4.43;2.43;;;;;;;8.49;50.54;101627.84;4914817;29;20958;-65
2023/04/02 23:56:12;;;;;;;3.40;2.10;;;;;;;8.40;50.43;101627.63;4916816;29;20222;-66
2023/04/02 23:58:40;;;;;;;4.80;2.57;;;;;;;8.36;50.64;101632.25;4918440;29;20271;-66
